createdAt,value
2023-02-23T00:01:57.392Z,1.71
2023-02-23T00:04:26.451Z,1.70
2023-02-23T00:06:54.944Z,1.66
2023-02-23T00:09:28.065Z,1.66
2023-02-23T00:11:56.922Z,1.66
2023-02-23T00:14:28.334Z,1.59
2023-02-23T00:16:57.073Z,1.59
2023-02-23T00:19:26.103Z,1.64
2023-02-23T00:21:55.090Z,1.59
2023-02-23T00:24:23.444Z,1.62
2023-02-23T00:26:51.841Z,1.64
2023-02-23T00:29:20.839Z,1.64
2023-02-23T00:31:51.040Z,1.62
2023-02-23T00:34:21.667Z,1.66
2023-02-23T00:36:51.692Z,1.66
2023-02-23T00:39:23.243Z,1.64
2023-02-23T00:41:52.589Z,1.68
2023-02-23T00:44:23.715Z,1.68
2023-02-23T00:46:53.812Z,1.67
2023-02-23T00:49:23.275Z,1.62
2023-02-23T00:51:52.385Z,1.60
2023-02-23T00:54:21.886Z,1.54
2023-02-23T00:56:50.321Z,1.53
2023-02-23T00:59:18.716Z,1.51
2023-02-23T01:01:47.445Z,1.47
2023-02-23T01:04:16.910Z,1.46
2023-02-23T01:06:46.531Z,1.44
2023-02-23T01:09:16.279Z,1.43
2023-02-23T01:11:47.005Z,1.43
2023-02-23T01:14:16.430Z,1.42
2023-02-23T01:16:44.505Z,1.42
2023-02-23T01:19:13.845Z,1.38
2023-02-23T01:21:46.262Z,1.34
2023-02-23T01:24:14.539Z,1.33
2023-02-23T01:26:44.654Z,1.33
2023-02-23T01:29:13.751Z,1.32
2023-02-23T01:31:43.415Z,1.32
2023-02-23T01:34:13.075Z,1.34
2023-02-23T01:36:42.514Z,1.35
2023-02-23T01:39:12.917Z,1.35
2023-02-23T01:41:43.533Z,1.35
2023-02-23T01:44:26.804Z,1.35
2023-02-23T01:46:57.065Z,1.36
2023-02-23T01:49:26.974Z,1.30
2023-02-23T01:51:57.082Z,1.32
2023-02-23T01:54:29.132Z,1.34
2023-02-23T01:56:59.266Z,1.33
2023-02-23T01:59:30.190Z,1.33
2023-02-23T02:01:58.636Z,1.36
2023-02-23T02:04:27.236Z,1.32
2023-02-23T02:06:56.907Z,1.34
2023-02-23T02:09:28.465Z,1.31
2023-02-23T02:11:56.928Z,1.35
2023-02-23T02:14:28.756Z,1.37
2023-02-23T02:17:17.177Z,1.33
2023-02-23T02:20:06.339Z,1.28
2023-02-23T02:22:43.831Z,1.30
2023-02-23T02:25:33.406Z,1.23
2023-02-23T02:28:22.342Z,1.25
2023-02-23T02:31:08.659Z,1.24
2023-02-23T02:33:55.733Z,1.21
2023-02-23T02:36:41.594Z,1.22
2023-02-23T02:39:24.204Z,1.18
2023-02-23T02:41:56.216Z,1.10
2023-02-23T02:44:29.193Z,1.09
2023-02-23T02:47:00.649Z,1.05
2023-02-23T02:49:32.684Z,1.07
2023-02-23T02:52:05.451Z,1.06
2023-02-23T02:54:39.772Z,0.99
2023-02-23T02:57:09.971Z,0.98
2023-02-23T03:00:02.186Z,0.94
2023-02-23T03:02:51.746Z,0.88
2023-02-23T03:05:38.474Z,0.84
2023-02-23T03:08:29.317Z,0.79
2023-02-23T03:11:20.105Z,0.79
2023-02-23T03:14:12.550Z,0.79
2023-02-23T03:17:06.173Z,0.74
2023-02-23T03:19:55.253Z,0.71
2023-02-23T03:22:42.536Z,0.71
2023-02-23T03:25:30.624Z,0.72
2023-02-23T03:28:24.736Z,0.68
2023-02-23T03:31:14.149Z,0.64
2023-02-23T03:34:03.558Z,0.62
2023-02-23T03:36:52.693Z,0.55
2023-02-23T03:39:43.472Z,0.48
2023-02-23T03:42:32.825Z,0.41
2023-02-23T03:45:23.812Z,0.36
2023-02-23T03:48:12.068Z,0.33
2023-02-23T03:51:00.411Z,0.32
2023-02-23T03:53:48.541Z,0.28
2023-02-23T03:56:35.681Z,0.31
2023-02-23T03:59:22.571Z,0.35
2023-02-23T04:02:11.492Z,0.38
2023-02-23T04:04:57.644Z,0.40
2023-02-23T04:07:44.046Z,0.43
2023-02-23T04:10:31.016Z,0.45
2023-02-23T04:13:15.540Z,0.45
2023-02-23T04:15:50.635Z,0.44
2023-02-23T04:18:23.838Z,0.42
2023-02-23T04:20:52.229Z,0.41
2023-02-23T04:23:22.931Z,0.35
2023-02-23T04:25:51.412Z,0.36
2023-02-23T04:28:20.952Z,0.31
2023-02-23T04:30:49.207Z,0.34
2023-02-23T04:33:17.712Z,0.33
2023-02-23T04:35:47.325Z,0.31
2023-02-23T04:38:15.628Z,0.29
2023-02-23T04:40:43.858Z,0.30
2023-02-23T04:43:13.417Z,0.34
2023-02-23T04:45:41.872Z,0.33
2023-02-23T04:48:10.121Z,0.39
2023-02-23T04:50:38.502Z,0.43
2023-02-23T04:53:08.221Z,0.45
2023-02-23T04:55:36.429Z,0.46
2023-02-23T04:58:04.697Z,0.49
2023-02-23T05:00:34.189Z,0.49
2023-02-23T05:03:02.821Z,0.48
2023-02-23T05:05:31.701Z,0.48
2023-02-23T05:08:00.365Z,0.46
2023-02-23T05:10:30.440Z,0.44
2023-02-23T05:12:59.512Z,0.43
2023-02-23T05:15:27.571Z,0.41
2023-02-23T05:17:56.522Z,0.40
2023-02-23T05:20:24.653Z,0.38
2023-02-23T05:22:52.916Z,0.34
2023-02-23T05:25:21.265Z,0.31
2023-02-23T05:27:51.062Z,0.28
2023-02-23T05:30:19.300Z,0.26
2023-02-23T05:32:47.519Z,0.21
2023-02-23T05:35:15.784Z,0.16
2023-02-23T05:37:45.049Z,0.09
2023-02-23T05:40:13.685Z,0.02
2023-02-23T05:42:41.795Z,-0.03
2023-02-23T05:45:11.493Z,-0.08
2023-02-23T05:47:39.997Z,-0.12
2023-02-23T05:50:09.099Z,-0.19
2023-02-23T05:52:38.859Z,-0.21
2023-02-23T05:55:07.501Z,-0.23
2023-02-23T05:57:35.901Z,-0.25
2023-02-23T06:00:04.297Z,-0.30
2023-02-23T06:02:34.544Z,-0.38
2023-02-23T06:05:02.694Z,-0.38
2023-02-23T06:07:31.197Z,-0.42
2023-02-23T06:09:59.499Z,-0.49
2023-02-23T06:12:27.621Z,-0.53
2023-02-23T06:14:55.982Z,-0.57
2023-02-23T06:17:24.485Z,-0.57
2023-02-23T06:19:54.540Z,-0.60
2023-02-23T06:22:23.280Z,-0.60
2023-02-23T06:24:51.487Z,-0.63
2023-02-23T06:27:19.910Z,-0.64
2023-02-23T06:29:48.114Z,-0.65
2023-02-23T06:32:16.548Z,-0.62
2023-02-23T06:34:49.146Z,-0.61
2023-02-23T06:37:19.164Z,-0.61
2023-02-23T06:39:47.408Z,-0.70
2023-02-23T06:42:15.600Z,-0.76
2023-02-23T06:44:43.954Z,-0.85
2023-02-23T06:47:12.245Z,-0.92
2023-02-23T06:49:41.050Z,-0.96
2023-02-23T06:52:09.602Z,-0.97
2023-02-23T06:54:40.139Z,-0.98
2023-02-23T06:57:08.912Z,-1.02
2023-02-23T06:59:37.661Z,-1.08
2023-02-23T07:02:06.214Z,-1.11
2023-02-23T07:04:34.840Z,-1.16
2023-02-23T07:07:03.870Z,-1.17
2023-02-23T07:09:32.063Z,-1.17
2023-02-23T07:12:02.589Z,-1.17
2023-02-23T07:14:31.037Z,-1.17
2023-02-23T07:16:59.168Z,-1.25
2023-02-23T07:19:27.562Z,-1.32
2023-02-23T07:21:55.788Z,-1.41
2023-02-23T07:24:24.280Z,-1.47
2023-02-23T07:26:52.482Z,-1.51
2023-02-23T07:29:24.145Z,-1.48
2023-02-23T07:31:52.695Z,-1.46
2023-02-23T07:34:21.099Z,-1.45
2023-02-23T07:36:49.459Z,-1.44
2023-02-23T07:39:17.678Z,-1.44
2023-02-23T07:41:46.028Z,-1.44
2023-02-23T07:44:19.571Z,-1.42
2023-02-23T07:46:49.798Z,-1.42
2023-02-23T07:49:18.068Z,-1.38
2023-02-23T07:51:46.252Z,-1.31
2023-02-23T07:54:15.144Z,-1.26
2023-02-23T07:56:43.622Z,-1.17
2023-02-23T07:59:11.972Z,-1.11
2023-02-23T08:01:40.400Z,-1.12
2023-02-23T08:04:10.101Z,-1.16
2023-02-23T08:06:38.584Z,-1.13
2023-02-23T08:09:07.644Z,-1.08
2023-02-23T08:11:35.740Z,-1.06
2023-02-23T08:14:04.441Z,-1.04
2023-02-23T08:16:34.370Z,-0.98
2023-02-23T08:19:11.343Z,-0.92
2023-02-23T08:21:39.692Z,-0.86
2023-02-23T08:24:08.572Z,-0.81
2023-02-23T08:26:38.300Z,-0.75
2023-02-23T08:29:09.831Z,-0.67
2023-02-23T08:31:41.561Z,-0.63
2023-02-23T08:34:11.560Z,-0.57
2023-02-23T08:36:45.995Z,-0.48
2023-02-23T08:39:15.586Z,-0.39
2023-02-23T08:41:47.329Z,-0.32
2023-02-23T08:44:17.162Z,-0.28
2023-02-23T08:46:46.248Z,-0.21
2023-02-23T08:49:16.634Z,-0.13
2023-02-23T08:51:46.991Z,-0.05
2023-02-23T08:54:18.493Z,0.05
2023-02-23T08:56:47.157Z,0.13
2023-02-23T08:59:16.151Z,0.19
2023-02-23T09:01:44.481Z,0.29
2023-02-23T09:04:12.726Z,0.40
2023-02-23T09:06:42.324Z,0.62
2023-02-23T09:09:11.102Z,0.79
2023-02-23T09:11:39.236Z,1.09
2023-02-23T09:14:08.882Z,1.40
2023-02-23T09:16:37.185Z,1.81
2023-02-23T09:19:05.505Z,2.24
2023-02-23T09:21:34.762Z,2.46
2023-02-23T09:24:04.668Z,2.80
2023-02-23T09:26:33.790Z,3.06
2023-02-23T09:29:03.197Z,3.22
2023-02-23T09:31:31.632Z,3.39
2023-02-23T09:34:01.913Z,3.62
2023-02-23T09:36:31.634Z,3.87
2023-02-23T09:39:00.157Z,4.14
2023-02-23T09:41:51.790Z,4.67
2023-02-23T09:44:26.382Z,5.37
2023-02-23T09:47:01.504Z,6.16
2023-02-23T09:49:31.251Z,6.80
2023-02-23T09:52:01.411Z,7.58
2023-02-23T09:54:31.770Z,8.31
2023-02-23T09:57:03.734Z,8.94
2023-02-23T09:59:32.694Z,9.52
2023-02-23T10:02:05.728Z,9.95
2023-02-23T10:04:37.510Z,10.15
2023-02-23T10:07:08.989Z,10.28
2023-02-23T10:09:46.702Z,10.42
2023-02-23T10:12:20.582Z,10.46
2023-02-23T10:14:58.149Z,10.85
2023-02-23T10:17:30.956Z,10.99
2023-02-23T10:20:03.434Z,11.07
2023-02-23T10:22:34.487Z,11.20
2023-02-23T10:25:06.536Z,11.41
2023-02-23T10:27:39.538Z,11.44
2023-02-23T10:30:17.709Z,11.31
2023-02-23T10:32:50.362Z,11.21
2023-02-23T10:35:21.703Z,11.03
2023-02-23T10:37:51.583Z,11.37
2023-02-23T10:40:24.248Z,11.52
2023-02-23T10:42:54.112Z,11.42
2023-02-23T10:45:24.803Z,10.93
2023-02-23T10:47:55.187Z,10.88
2023-02-23T10:50:27.541Z,10.60
2023-02-23T10:52:58.395Z,10.46
2023-02-23T10:55:27.596Z,10.45
2023-02-23T10:58:18.500Z,10.24
2023-02-23T11:00:54.667Z,10.20
2023-02-23T11:03:28.750Z,10.37
2023-02-23T11:05:56.940Z,10.41
2023-02-23T11:08:27.255Z,10.54
2023-02-23T11:10:59.370Z,10.65
2023-02-23T11:13:30.376Z,10.84
2023-02-23T11:16:02.680Z,11.05
2023-02-23T11:18:31.625Z,10.90
2023-02-23T11:20:59.903Z,11.07
2023-02-23T11:23:30.586Z,11.26
2023-02-23T11:26:01.365Z,11.50
2023-02-23T11:28:33.383Z,11.26
2023-02-23T11:31:04.236Z,11.43
2023-02-23T11:33:36.118Z,11.62
2023-02-23T11:36:18.357Z,11.47
2023-02-23T11:38:47.986Z,11.24
2023-02-23T11:41:22.679Z,11.16
2023-02-23T11:43:54.908Z,11.13
2023-02-23T11:46:23.988Z,11.36
2023-02-23T11:48:54.167Z,11.41
2023-02-23T11:51:27.006Z,11.74
2023-02-23T11:53:56.025Z,11.91
2023-02-23T11:56:25.851Z,12.19
2023-02-23T11:58:57.840Z,12.04
2023-02-23T12:01:39.725Z,12.34
2023-02-23T12:04:09.808Z,12.16
2023-02-23T12:06:39.136Z,12.27
2023-02-23T12:09:13.105Z,12.33
2023-02-23T12:11:45.714Z,12.28
2023-02-23T12:14:22.040Z,12.07
2023-02-23T12:16:53.669Z,11.82
2023-02-23T12:19:25.630Z,12.03
2023-02-23T12:21:58.450Z,12.07
2023-02-23T12:24:33.394Z,12.09
2023-02-23T12:27:03.323Z,12.07
2023-02-23T12:29:38.263Z,11.90
2023-02-23T12:32:08.526Z,11.53
2023-02-23T12:34:41.734Z,11.44
2023-02-23T12:37:29.165Z,11.48
2023-02-23T12:40:00.071Z,11.66
2023-02-23T12:42:35.790Z,11.68
2023-02-23T12:45:07.897Z,11.93
2023-02-23T12:47:38.625Z,11.90
2023-02-23T12:50:13.605Z,11.92
2023-02-23T12:52:45.600Z,11.78
2023-02-23T12:55:14.958Z,11.65
2023-02-23T12:57:47.358Z,11.58
2023-02-23T13:00:39.930Z,11.55
2023-02-23T13:03:37.532Z,11.63
2023-02-23T13:06:09.110Z,11.72
2023-02-23T13:08:45.211Z,11.73
2023-02-23T13:11:18.531Z,11.61
2023-02-23T13:13:50.283Z,11.72
2023-02-23T13:16:23.236Z,11.37
2023-02-23T13:18:55.202Z,11.33
2023-02-23T13:21:28.603Z,11.09
2023-02-23T13:24:00.703Z,11.01
2023-02-23T13:26:32.723Z,10.91
2023-02-23T13:29:03.942Z,11.05
2023-02-23T13:31:35.160Z,11.01
2023-02-23T13:34:07.437Z,11.00
2023-02-23T13:36:36.146Z,11.11
2023-02-23T13:39:22.477Z,10.98
2023-02-23T13:41:54.573Z,10.99
2023-02-23T13:44:26.696Z,10.82
2023-02-23T13:46:59.308Z,10.86
2023-02-23T13:49:35.790Z,10.82
2023-02-23T13:52:10.677Z,10.72
2023-02-23T13:54:38.944Z,10.81
2023-02-23T13:57:16.834Z,10.68
2023-02-23T13:59:46.625Z,10.59
2023-02-23T14:02:33.384Z,10.75
2023-02-23T14:05:09.058Z,10.93
2023-02-23T14:07:41.199Z,11.06
2023-02-23T14:10:10.712Z,11.12
2023-02-23T14:12:39.917Z,10.95
2023-02-23T14:15:28.342Z,10.74
2023-02-23T14:17:57.477Z,10.96
2023-02-23T14:20:37.852Z,10.98
2023-02-23T14:23:17.142Z,10.92
2023-02-23T14:25:46.840Z,10.98
2023-02-23T14:28:25.579Z,10.95
2023-02-23T14:31:01.445Z,11.01
2023-02-23T14:33:36.971Z,11.09
2023-02-23T14:36:29.154Z,10.94
2023-02-23T14:39:01.537Z,10.89
2023-02-23T14:41:31.423Z,10.89
2023-02-23T14:44:04.085Z,10.71
2023-02-23T14:46:32.619Z,10.66
2023-02-23T14:49:02.544Z,10.41
2023-02-23T14:51:48.778Z,10.33
2023-02-23T14:54:28.391Z,10.34
2023-02-23T14:56:58.390Z,10.16
2023-02-23T14:59:28.245Z,10.23
2023-02-23T15:01:57.678Z,10.03
2023-02-23T15:04:27.511Z,10.06
2023-02-23T15:06:59.097Z,10.07
2023-02-23T15:09:32.337Z,10.10
2023-02-23T15:12:02.150Z,10.15
2023-02-23T15:14:32.970Z,9.96
2023-02-23T15:17:01.215Z,9.94
2023-02-23T15:19:32.796Z,9.91
2023-02-23T15:22:04.584Z,9.80
2023-02-23T15:24:34.598Z,9.74
2023-02-23T15:27:02.709Z,9.72
2023-02-23T15:29:32.746Z,9.64
2023-02-23T15:32:15.228Z,9.72
2023-02-23T15:34:43.800Z,9.82
2023-02-23T15:37:17.028Z,9.74
2023-02-23T15:39:48.121Z,9.59
2023-02-23T15:42:18.358Z,9.51
2023-02-23T15:44:47.240Z,9.55
2023-02-23T15:47:20.672Z,9.62
2023-02-23T15:49:50.339Z,9.48
2023-02-23T15:52:23.822Z,9.63
2023-02-23T15:54:54.313Z,9.60
2023-02-23T15:57:24.050Z,9.57
2023-02-23T15:59:54.672Z,9.51
2023-02-23T16:02:25.141Z,9.54
2023-02-23T16:04:54.088Z,9.46
2023-02-23T16:07:24.905Z,9.29
2023-02-23T16:09:54.216Z,9.28
2023-02-23T16:12:24.350Z,9.28
2023-02-23T16:14:55.279Z,9.24
2023-02-23T16:17:26.908Z,9.24
2023-02-23T16:19:57.644Z,9.19
2023-02-23T16:22:28.948Z,9.23
2023-02-23T16:25:02.809Z,9.19
2023-02-23T16:27:31.820Z,9.16
2023-02-23T16:30:07.864Z,9.08
2023-02-23T16:32:38.029Z,9.10
2023-02-23T16:35:11.633Z,9.02
2023-02-23T16:37:55.050Z,9.04
2023-02-23T16:40:23.520Z,9.00
2023-02-23T16:42:53.347Z,8.90
2023-02-23T16:45:22.845Z,8.92
2023-02-23T16:47:52.944Z,8.91
2023-02-23T16:50:22.688Z,8.87
2023-02-23T16:52:53.642Z,8.82
2023-02-23T16:55:27.140Z,8.74
2023-02-23T16:58:00.254Z,8.71
2023-02-23T17:00:33.540Z,8.62
2023-02-23T17:03:05.778Z,8.59
2023-02-23T17:05:34.324Z,8.48
2023-02-23T17:08:05.480Z,8.36
2023-02-23T17:10:37.186Z,8.29
2023-02-23T17:13:06.657Z,8.19
2023-02-23T17:15:39.594Z,8.16
2023-02-23T17:18:07.969Z,8.08
2023-02-23T17:20:36.653Z,8.04
2023-02-23T17:23:09.810Z,8.01
2023-02-23T17:25:38.804Z,8.01
2023-02-23T17:28:13.899Z,7.91
2023-02-23T17:30:42.885Z,7.83
2023-02-23T17:33:12.378Z,7.78
2023-02-23T17:35:58.677Z,7.73
2023-02-23T17:38:35.160Z,7.65
2023-02-23T17:41:04.692Z,7.66
2023-02-23T17:43:32.919Z,7.63
2023-02-23T17:46:07.431Z,7.59
2023-02-23T17:48:44.876Z,7.51
2023-02-23T17:51:22.776Z,7.48
2023-02-23T17:53:53.024Z,7.40
2023-02-23T17:56:23.692Z,7.40
2023-02-23T17:58:55.318Z,7.35
2023-02-23T18:01:33.144Z,7.33
2023-02-23T18:04:01.368Z,7.31
2023-02-23T18:06:30.752Z,7.29
2023-02-23T18:09:01.215Z,7.26
2023-02-23T18:11:36.379Z,7.18
2023-02-23T18:14:09.759Z,7.13
2023-02-23T18:16:41.894Z,7.04
2023-02-23T18:19:10.680Z,6.97
2023-02-23T18:21:40.993Z,6.93
2023-02-23T18:24:16.989Z,6.88
2023-02-23T18:26:46.367Z,6.86
2023-02-23T18:29:14.615Z,6.79
2023-02-23T18:31:43.319Z,6.78
2023-02-23T18:34:12.298Z,6.73
2023-02-23T18:36:40.486Z,6.70
2023-02-23T18:39:09.106Z,6.65
2023-02-23T18:41:39.018Z,6.61
2023-02-23T18:44:08.702Z,6.58
2023-02-23T18:46:37.189Z,6.54
2023-02-23T18:49:06.118Z,6.48
2023-02-23T18:51:34.862Z,6.47
2023-02-23T18:54:05.348Z,6.40
2023-02-23T18:56:33.513Z,6.38
2023-02-23T18:59:03.259Z,6.32
2023-02-23T19:01:33.426Z,6.24
2023-02-23T19:04:02.838Z,6.21
2023-02-23T19:06:31.212Z,6.15
2023-02-23T19:09:00.427Z,6.14
2023-02-23T19:11:30.437Z,6.10
2023-02-23T19:14:00.126Z,6.07
2023-02-23T19:16:31.249Z,6.01
2023-02-23T19:18:59.597Z,5.98
2023-02-23T19:21:27.861Z,5.97
2023-02-23T19:23:57.827Z,5.97
2023-02-23T19:26:27.183Z,5.94
2023-02-23T19:28:55.267Z,5.87
2023-02-23T19:31:26.275Z,5.84
2023-02-23T19:33:57.156Z,5.84
2023-02-23T19:36:30.019Z,5.81
2023-02-23T19:39:06.344Z,5.80
2023-02-23T19:41:35.372Z,5.72
2023-02-23T19:44:09.341Z,5.75
2023-02-23T19:46:40.275Z,5.79
2023-02-23T19:49:11.103Z,5.79
2023-02-23T19:51:39.440Z,5.78
2023-02-23T19:54:09.862Z,5.78
2023-02-23T19:56:38.991Z,5.75
2023-02-23T19:59:07.807Z,5.72
2023-02-23T20:01:37.503Z,5.72
2023-02-23T20:04:07.853Z,5.69
2023-02-23T20:06:44.805Z,5.67
2023-02-23T20:09:13.674Z,5.63
2023-02-23T20:11:42.778Z,5.62
2023-02-23T20:14:12.649Z,5.62
2023-02-23T20:16:41.015Z,5.59
2023-02-23T20:19:09.335Z,5.57
2023-02-23T20:21:39.907Z,5.56
2023-02-23T20:24:09.022Z,5.53
2023-02-23T20:26:38.337Z,5.49
2023-02-23T20:29:11.482Z,5.47
2023-02-23T20:31:45.006Z,5.46
2023-02-23T20:34:14.590Z,5.45
2023-02-23T20:36:45.586Z,5.47
2023-02-23T20:39:14.850Z,5.47
2023-02-23T20:41:44.274Z,5.49
2023-02-23T20:44:13.146Z,5.50
2023-02-23T20:46:41.731Z,5.54
2023-02-23T20:49:15.250Z,5.56
2023-02-23T20:51:50.727Z,5.57
2023-02-23T20:54:19.660Z,5.60
2023-02-23T20:56:59.194Z,5.63
2023-02-23T20:59:30.749Z,5.61
2023-02-23T21:02:01.761Z,5.61
2023-02-23T21:04:33.399Z,5.61
2023-02-23T21:07:07.935Z,5.60
2023-02-23T21:09:37.236Z,5.59
2023-02-23T21:12:05.956Z,5.58
2023-02-23T21:14:35.466Z,5.58
2023-02-23T21:17:08.175Z,5.59
2023-02-23T21:19:36.565Z,5.57
2023-02-23T21:22:09.495Z,5.56
2023-02-23T21:24:41.187Z,5.55
2023-02-23T21:27:13.269Z,5.55
2023-02-23T21:29:41.667Z,5.56
2023-02-23T21:32:14.626Z,5.55
2023-02-23T21:34:43.043Z,5.57
2023-02-23T21:37:12.782Z,5.57
2023-02-23T21:39:41.576Z,5.58
2023-02-23T21:42:09.720Z,5.58
2023-02-23T21:44:38.821Z,5.55
2023-02-23T21:47:08.363Z,5.56
2023-02-23T21:49:38.622Z,5.53
2023-02-23T21:52:06.747Z,5.54
2023-02-23T21:54:36.727Z,5.54
2023-02-23T21:57:05.642Z,5.53
2023-02-23T21:59:36.330Z,5.52
2023-02-23T22:02:05.276Z,5.52
2023-02-23T22:04:36.945Z,5.50
2023-02-23T22:07:08.602Z,5.53
2023-02-23T22:09:39.642Z,5.52
2023-02-23T22:12:11.678Z,5.53
2023-02-23T22:14:39.783Z,5.52
2023-02-23T22:17:08.060Z,5.48
2023-02-23T22:19:41.260Z,5.49
2023-02-23T22:22:16.061Z,5.48
2023-02-23T22:24:48.992Z,5.47
2023-02-23T22:27:17.280Z,5.44
2023-02-23T22:29:51.117Z,5.44
2023-02-23T22:32:21.338Z,5.41
2023-02-23T22:34:50.998Z,5.40
2023-02-23T22:37:22.110Z,5.39
2023-02-23T22:39:53.011Z,5.37
2023-02-23T22:42:21.293Z,5.36
2023-02-23T22:44:49.308Z,5.34
2023-02-23T22:47:24.568Z,5.34
2023-02-23T22:50:01.103Z,5.34
2023-02-23T22:52:37.910Z,5.32
2023-02-23T22:55:13.204Z,5.32
2023-02-23T22:57:45.639Z,5.31
2023-02-23T23:00:22.243Z,5.30
2023-02-23T23:02:53.271Z,5.30
2023-02-23T23:05:25.697Z,5.27
2023-02-23T23:07:58.268Z,5.24
2023-02-23T23:10:36.946Z,5.22
2023-02-23T23:13:13.143Z,5.20
2023-02-23T23:15:44.276Z,5.17
2023-02-23T23:18:22.621Z,5.13
2023-02-23T23:20:56.661Z,5.11
2023-02-23T23:23:30.967Z,5.09
2023-02-23T23:26:08.096Z,5.05
2023-02-23T23:28:43.352Z,5.01
2023-02-23T23:31:20.722Z,4.99
2023-02-23T23:33:52.571Z,4.95
2023-02-23T23:36:29.034Z,4.91
2023-02-23T23:39:01.988Z,4.91
2023-02-23T23:41:36.905Z,4.87
2023-02-23T23:44:10.071Z,4.84
2023-02-23T23:46:43.282Z,4.83
2023-02-23T23:49:12.915Z,4.82
2023-02-23T23:51:44.896Z,4.82
2023-02-23T23:54:18.052Z,4.82
2023-02-23T23:56:47.707Z,4.81
2023-02-23T23:59:17.883Z,4.80
